Time;durP1;ratioP1;P1;durP2;ratioP2;P2;SDS_P1;SDS_P2;PMS_P1;PMS_P2;Temp;Humidity;BMP_temperature;BMP_pressure;BME280_temperature;BME280_humidity;BME280_pressure;Samples;Min_cycle;Max_cycle;Signal;HPM_P1;HPM_P2
2023/12/25 00:01:36;;;;;;;7.90;4.13;;;13.00;99.90;;;;;;5093638;28;20032;-63
2023/12/25 00:04:02;;;;;;;4.97;3.67;;;13.10;99.90;;;;;;5093788;28;20021;-64
2023/12/25 00:06:28;;;;;;;6.55;4.18;;;13.10;99.90;;;;;;5093669;28;20095;-65
2023/12/25 00:08:53;;;;;;;5.07;3.97;;;13.10;99.90;;;;;;5093540;28;20024;-62
2023/12/25 00:11:19;;;;;;;6.10;4.57;;;13.10;99.90;;;;;;5093623;28;20021;-62
2023/12/25 00:13:47;;;;;;;7.35;4.00;;;13.10;99.90;;;;;;5092534;28;20024;-63
2023/12/25 00:16:12;;;;;;;5.20;3.70;;;13.10;99.90;;;;;;5093590;28;20080;-63
2023/12/25 00:18:38;;;;;;;5.15;3.67;;;13.10;99.90;;;;;;5093433;28;20035;-64
2023/12/25 00:21:04;;;;;;;5.53;4.10;;;13.10;99.90;;;;;;5093319;28;20031;-62
2023/12/25 00:23:29;;;;;;;6.50;4.28;;;13.10;99.90;;;;;;5093400;28;20025;-64
2023/12/25 00:25:55;;;;;;;4.47;3.45;;;13.00;99.90;;;;;;5093310;28;20047;-63
2023/12/25 00:28:21;;;;;;;6.97;3.78;;;13.10;99.90;;;;;;5093236;28;20601;-62
2023/12/25 00:30:46;;;;;;;6.07;3.83;;;13.00;99.90;;;;;;5092911;28;20029;-64
2023/12/25 00:33:12;;;;;;;5.93;4.15;;;13.00;99.90;;;;;;5092247;28;20059;-63
2023/12/25 00:35:37;;;;;;;6.97;4.22;;;13.00;99.90;;;;;;5093126;28;20032;-63
2023/12/25 00:38:04;;;;;;;7.32;4.05;;;13.00;99.90;;;;;;5093074;28;20040;-62
2023/12/25 00:40:29;;;;;;;6.03;3.97;;;13.00;99.90;;;;;;5093118;28;20024;-64
2023/12/25 00:42:55;;;;;;;6.00;3.63;;;13.00;99.90;;;;;;5092934;28;20035;-63
2023/12/25 00:45:20;;;;;;;5.15;3.33;;;13.00;99.90;;;;;;5092997;28;20016;-62
2023/12/25 00:47:46;;;;;;;6.50;4.30;;;13.00;99.90;;;;;;5092928;28;20025;-63
2023/12/25 00:50:12;;;;;;;6.40;4.13;;;13.00;99.90;;;;;;5092877;28;20028;-63
2023/12/25 00:52:37;;;;;;;5.00;3.30;;;13.00;99.90;;;;;;5092827;28;20044;-64
2023/12/25 00:55:03;;;;;;;5.18;3.25;;;13.00;99.90;;;;;;5092780;28;20032;-64
2023/12/25 00:57:29;;;;;;;5.15;3.40;;;13.00;99.90;;;;;;5092437;28;20052;-62
2023/12/25 00:59:55;;;;;;;6.10;3.88;;;13.00;99.90;;;;;;5092640;28;20021;-63
2023/12/25 01:02:20;;;;;;;7.95;3.67;;;13.00;99.90;;;;;;5091363;28;20028;-62
2023/12/25 01:04:46;;;;;;;6.25;3.60;;;12.90;99.90;;;;;;5092634;28;20046;-63
2023/12/25 01:07:12;;;;;;;6.18;4.40;;;12.90;99.90;;;;;;5092596;28;20031;-63
2023/12/25 01:09:37;;;;;;;8.20;4.40;;;12.90;99.90;;;;;;5092741;28;20028;-62
2023/12/25 01:12:03;;;;;;;6.32;3.90;;;12.90;99.90;;;;;;5092631;28;20178;-62
2023/12/25 01:14:29;;;;;;;6.20;4.10;;;12.90;99.90;;;;;;5092534;28;20088;-62
2023/12/25 01:16:54;;;;;;;6.82;4.38;;;12.90;99.90;;;;;;5092550;28;20032;-62
2023/12/25 01:19:20;;;;;;;7.85;4.32;;;12.90;99.90;;;;;;5092506;28;20031;-63
2023/12/25 01:21:45;;;;;;;6.68;3.75;;;12.90;99.90;;;;;;5092141;28;20101;-63
2023/12/25 01:24:11;;;;;;;10.80;4.43;;;12.90;99.90;;;;;;5092452;28;20097;-64
2023/12/25 01:26:37;;;;;;;6.70;4.68;;;12.90;99.90;;;;;;5091264;28;20029;-62
2023/12/25 01:29:02;;;;;;;5.68;4.25;;;13.00;99.90;;;;;;5092431;28;20032;-64
2023/12/25 01:31:28;;;;;;;5.93;3.47;;;13.00;99.90;;;;;;5092160;28;20451;-63
2023/12/25 01:33:53;;;;;;;6.13;4.07;;;13.00;99.90;;;;;;5092402;28;20029;-63
2023/12/25 01:36:19;;;;;;;5.43;3.55;;;13.00;99.90;;;;;;5092386;28;20024;-64
2023/12/25 01:38:44;;;;;;;5.28;3.88;;;13.00;99.90;;;;;;5092261;28;20044;-62
2023/12/25 01:41:10;;;;;;;6.38;4.47;;;13.10;99.90;;;;;;5092257;28;20029;-63
2023/12/25 01:43:36;;;;;;;6.70;4.10;;;13.10;99.90;;;;;;5093657;28;20093;-62
2023/12/25 01:46:01;;;;;;;8.77;4.47;;;13.10;99.90;;;;;;5096560;28;20028;-62
2023/12/25 01:48:28;;;;;;;7.10;4.78;;;13.10;99.90;;;;;;5096311;28;20048;-63
2023/12/25 01:50:56;;;;;;;7.10;4.18;;;13.10;99.90;;;;;;5096273;28;20052;-62
2023/12/25 01:53:22;;;;;;;9.27;4.63;;;13.20;99.90;;;;;;5096344;28;20036;-62
2023/12/25 01:55:48;;;;;;;6.25;4.07;;;13.20;99.90;;;;;;5096304;28;20051;-62
2023/12/25 01:58:14;;;;;;;7.75;4.47;;;13.20;99.90;;;;;;5095963;28;20044;-62
2023/12/25 02:00:39;;;;;;;7.03;4.45;;;13.20;99.90;;;;;;5095968;28;20035;-63
2023/12/25 02:03:05;;;;;;;6.75;4.30;;;13.20;99.90;;;;;;5095943;28;20037;-64
2023/12/25 02:05:31;;;;;;;7.22;4.13;;;13.10;99.90;;;;;;5095892;28;20040;-64
2023/12/25 02:07:56;;;;;;;7.95;3.92;;;13.20;99.90;;;;;;5096036;28;20020;-61
2023/12/25 02:10:27;;;;;;;7.43;4.80;;;13.20;99.90;;;;;;5096056;28;20478;-63
2023/12/25 02:12:53;;;;;;;7.00;4.60;;;13.20;99.90;;;;;;5095858;28;20509;-62
2023/12/25 02:15:19;;;;;;;9.07;4.85;;;13.20;99.90;;;;;;5095726;28;20024;-64
2023/12/25 02:17:45;;;;;;;10.85;5.10;;;13.20;99.90;;;;;;5095905;28;20028;-62
2023/12/25 02:20:12;;;;;;;7.85;3.83;;;13.20;99.90;;;;;;5095710;28;20059;-62
2023/12/25 02:22:39;;;;;;;6.20;4.40;;;13.20;99.90;;;;;;5095687;28;20035;-63
2023/12/25 02:25:21;;;;;;;9.43;4.60;;;13.20;99.90;;;;;;5095783;28;20035;-62
2023/12/25 02:27:47;;;;;;;;;;;13.20;99.90;;;;;;5096021;28;20031;-64
2023/12/25 02:30:13;;;;;;;7.88;4.43;;;13.20;99.90;;;;;;5095364;28;19908;-63
2023/12/25 02:32:38;;;;;;;7.88;3.88;;;13.20;99.90;;;;;;5095389;28;20028;-62
2023/12/25 02:35:04;;;;;;;8.73;4.43;;;13.20;99.90;;;;;;5095453;28;20126;-62
2023/12/25 02:37:30;;;;;;;7.47;4.13;;;13.20;99.90;;;;;;5095444;28;20032;-63
2023/12/25 02:39:56;;;;;;;7.20;4.35;;;13.20;99.90;;;;;;5095388;28;20032;-63
2023/12/25 02:42:21;;;;;;;7.10;4.43;;;13.20;99.90;;;;;;5095302;28;20029;-62
2023/12/25 02:44:47;;;;;;;8.32;4.00;;;13.20;99.90;;;;;;5095286;28;20032;-63
2023/12/25 02:47:12;;;;;;;6.10;4.35;;;13.20;99.90;;;;;;5095119;28;20054;-62
2023/12/25 02:49:38;;;;;;;7.78;4.90;;;13.20;99.90;;;;;;5095120;28;20029;-63
2023/12/25 02:52:04;;;;;;;6.65;4.22;;;13.30;99.90;;;;;;5095092;28;20034;-64
2023/12/25 02:54:29;;;;;;;7.55;4.82;;;13.30;99.90;;;;;;5094427;28;20021;-62
2023/12/25 02:56:55;;;;;;;8.18;4.38;;;13.30;99.90;;;;;;5094327;28;20032;-64
2023/12/25 02:59:20;;;;;;;8.77;4.60;;;13.30;99.90;;;;;;5095031;28;20032;-63
2023/12/25 03:01:46;;;;;;;6.40;3.60;;;13.30;99.90;;;;;;5094609;28;20032;-61
2023/12/25 03:04:11;;;;;;;7.88;4.20;;;13.30;99.90;;;;;;5094880;28;20067;-63
2023/12/25 03:06:37;;;;;;;6.45;3.75;;;13.30;99.90;;;;;;5094935;28;20044;-64
2023/12/25 03:09:03;;;;;;;6.25;4.20;;;13.30;99.90;;;;;;5094849;28;20467;-62
2023/12/25 03:11:28;;;;;;;8.70;4.13;;;13.30;99.90;;;;;;5094814;28;20080;-63
2023/12/25 03:13:54;;;;;;;8.88;4.53;;;13.30;99.90;;;;;;5094766;28;20028;-63
2023/12/25 03:16:20;;;;;;;7.60;4.10;;;13.40;99.90;;;;;;5094713;28;20020;-64
2023/12/25 03:18:45;;;;;;;6.70;4.40;;;13.40;99.90;;;;;;5094664;28;20033;-63
2023/12/25 03:21:11;;;;;;;6.72;4.03;;;13.40;99.90;;;;;;5094650;28;20039;-62
2023/12/25 03:23:37;;;;;;;8.93;4.40;;;13.40;99.90;;;;;;5094635;28;20403;-64
2023/12/25 03:26:04;;;;;;;9.15;4.43;;;13.40;99.90;;;;;;5094620;28;20020;-62
2023/12/25 03:28:29;;;;;;;6.72;4.10;;;13.40;99.90;;;;;;5094386;28;20031;-63
2023/12/25 03:30:55;;;;;;;7.28;4.25;;;13.40;99.90;;;;;;5093141;28;20029;-61
2023/12/25 03:33:21;;;;;;;6.85;3.65;;;13.40;99.90;;;;;;5093378;28;20028;-62
2023/12/25 03:35:46;;;;;;;8.20;3.85;;;13.40;99.90;;;;;;5094354;28;20032;-63
2023/12/25 03:38:14;;;;;;;6.50;4.30;;;13.40;99.90;;;;;;5094355;28;20032;-63
2023/12/25 03:40:39;;;;;;;5.65;3.25;;;13.40;99.90;;;;;;5094185;28;20092;-63
2023/12/25 03:43:06;;;;;;;5.75;3.60;;;13.40;99.90;;;;;;5094144;28;20032;-63
2023/12/25 03:45:31;;;;;;;7.70;3.83;;;13.50;99.90;;;;;;5094169;28;20032;-62
2023/12/25 03:47:57;;;;;;;5.28;3.50;;;13.40;99.90;;;;;;5094348;28;20035;-62
2023/12/25 03:50:22;;;;;;;5.72;3.40;;;13.50;99.90;;;;;;5094097;28;20028;-62
2023/12/25 03:52:48;;;;;;;6.40;3.85;;;13.50;99.90;;;;;;5094054;28;20063;-62
2023/12/25 03:55:14;;;;;;;6.43;3.85;;;13.50;99.90;;;;;;5094020;28;20101;-61
2023/12/25 03:57:39;;;;;;;5.80;3.58;;;13.50;99.90;;;;;;5093715;28;20048;-62
2023/12/25 04:00:06;;;;;;;6.22;3.33;;;13.40;99.90;;;;;;5093859;28;20033;-63
2023/12/25 04:02:31;;;;;;;5.05;3.40;;;13.40;99.90;;;;;;5093594;28;20080;-63
2023/12/25 04:04:57;;;;;;;5.38;3.55;;;13.40;99.90;;;;;;5093716;28;20024;-64
2023/12/25 04:07:23;;;;;;;4.57;3.30;;;13.40;99.90;;;;;;5093495;28;20025;-63
2023/12/25 04:09:49;;;;;;;5.47;3.38;;;13.40;99.90;;;;;;5093719;28;20111;-64
2023/12/25 04:12:15;;;;;;;4.65;3.30;;;13.40;99.90;;;;;;5093611;28;20029;-62
2023/12/25 04:14:40;;;;;;;7.03;3.90;;;13.40;99.90;;;;;;5093615;28;20043;-65
2023/12/25 04:17:06;;;;;;;7.95;4.55;;;13.40;99.90;;;;;;5093507;28;20084;-62
2023/12/25 04:19:32;;;;;;;7.75;4.00;;;13.40;99.90;;;;;;5093533;28;20051;-62
2023/12/25 04:21:58;;;;;;;7.57;4.88;;;13.40;99.90;;;;;;5093377;28;20025;-63
2023/12/25 04:24:24;;;;;;;8.30;5.20;;;13.40;99.90;;;;;;5093371;28;20683;-61
2023/12/25 04:26:49;;;;;;;8.98;5.18;;;13.40;99.90;;;;;;5093176;28;20055;-64
2023/12/25 04:29:15;;;;;;;7.50;4.65;;;13.30;99.90;;;;;;5093236;28;20029;-62
2023/12/25 04:31:40;;;;;;;8.13;5.15;;;13.30;99.90;;;;;;5093088;28;20044;-64
2023/12/25 04:34:06;;;;;;;7.28;4.80;;;13.30;99.90;;;;;;5093221;28;20033;-64
2023/12/25 04:36:32;;;;;;;8.32;4.70;;;13.30;99.90;;;;;;5093150;28;20077;-62
2023/12/25 04:39:01;;;;;;;10.45;5.57;;;13.30;99.90;;;;;;5093180;28;20058;-63
2023/12/25 04:41:27;;;;;;;8.00;4.88;;;13.30;99.90;;;;;;5092868;28;20025;-63
2023/12/25 04:43:53;;;;;;;7.80;4.93;;;13.30;99.90;;;;;;5093036;28;20013;-63
2023/12/25 04:46:20;;;;;;;8.43;5.45;;;13.20;99.90;;;;;;5093015;28;20044;-63
2023/12/25 04:48:46;;;;;;;9.80;5.40;;;13.20;99.90;;;;;;5092907;28;20020;-61
2023/12/25 04:51:11;;;;;;;9.07;5.05;;;13.20;99.90;;;;;;5092853;28;20356;-63
2023/12/25 04:53:37;;;;;;;11.07;5.47;;;13.20;99.90;;;;;;5092798;28;20032;-62
2023/12/25 04:56:03;;;;;;;11.60;6.63;;;13.10;99.90;;;;;;5092679;28;20048;-64
2023/12/25 04:58:29;;;;;;;11.00;6.00;;;13.00;99.90;;;;;;5092473;28;20048;-62
2023/12/25 05:00:55;;;;;;;9.43;5.93;;;12.90;99.90;;;;;;5092470;28;20035;-63
2023/12/25 05:03:21;;;;;;;11.15;6.35;;;12.90;99.90;;;;;;5091617;28;20051;-61
2023/12/25 05:05:48;;;;;;;10.85;6.38;;;12.90;99.90;;;;;;5092771;28;20052;-62
2023/12/25 05:08:14;;;;;;;11.07;5.82;;;12.90;99.90;;;;;;5092761;28;20017;-62
2023/12/25 05:10:39;;;;;;;7.93;5.07;;;12.90;99.90;;;;;;5092620;28;20031;-63
2023/12/25 05:13:05;;;;;;;8.05;5.25;;;12.90;99.90;;;;;;5091643;28;20616;-62
2023/12/25 05:15:30;;;;;;;8.00;4.90;;;12.90;99.90;;;;;;5092559;28;20025;-62
2023/12/25 05:17:56;;;;;;;11.88;5.20;;;12.90;99.90;;;;;;5091974;28;20032;-61
2023/12/25 05:20:22;;;;;;;9.38;5.28;;;12.90;99.90;;;;;;5091449;28;20032;-62
2023/12/25 05:22:47;;;;;;;6.57;4.47;;;12.90;99.90;;;;;;5092456;28;20084;-63
2023/12/25 05:25:13;;;;;;;8.20;4.10;;;12.80;99.90;;;;;;5092362;28;20032;-62
2023/12/25 05:27:39;;;;;;;6.25;4.07;;;12.80;99.90;;;;;;5092358;28;20055;-63
2023/12/25 05:30:05;;;;;;;5.85;3.85;;;12.80;99.90;;;;;;5092406;28;20024;-62
2023/12/25 05:32:30;;;;;;;4.38;2.13;;;12.80;99.90;;;;;;5092199;28;20068;-64
2023/12/25 05:34:56;;;;;;;4.10;2.20;;;12.70;99.90;;;;;;5092336;28;20097;-63
2023/12/25 05:37:22;;;;;;;3.20;1.52;;;12.70;99.90;;;;;;5092343;28;20021;-62
2023/12/25 05:39:48;;;;;;;2.13;1.45;;;12.70;99.90;;;;;;5092317;28;20029;-63
2023/12/25 05:42:13;;;;;;;1.45;0.95;;;12.50;99.90;;;;;;5091191;28;20033;-61
2023/12/25 05:44:39;;;;;;;2.03;0.60;;;12.40;99.90;;;;;;5092337;28;20116;-63
2023/12/25 05:47:05;;;;;;;1.17;0.50;;;12.30;99.90;;;;;;5092249;28;20044;-61
2023/12/25 05:49:30;;;;;;;2.38;0.57;;;12.10;99.90;;;;;;5092329;28;20104;-62
2023/12/25 05:51:56;;;;;;;2.47;0.50;;;12.10;99.90;;;;;;5092159;28;20037;-62
2023/12/25 05:54:21;;;;;;;0.65;0.28;;;12.00;99.90;;;;;;5092116;28;20040;-61
2023/12/25 05:56:47;;;;;;;1.17;0.55;;;11.90;99.90;;;;;;5092000;28;20032;-62
2023/12/25 05:59:13;;;;;;;1.38;0.40;;;11.90;99.90;;;;;;5091797;28;20132;-61
2023/12/25 06:01:38;;;;;;;0.60;0.47;;;11.90;99.90;;;;;;5091746;28;20048;-61
2023/12/25 06:04:04;;;;;;;1.85;0.68;;;11.90;99.90;;;;;;5092034;28;20115;-61
2023/12/25 06:06:29;;;;;;;0.90;0.43;;;11.90;99.90;;;;;;5092096;28;20021;-63
2023/12/25 06:08:55;;;;;;;0.80;0.47;;;11.90;99.90;;;;;;5092005;28;20035;-63
2023/12/25 06:11:21;;;;;;;0.77;0.40;;;11.90;99.90;;;;;;5091865;28;20041;-63
2023/12/25 06:13:47;;;;;;;1.02;0.52;;;11.90;99.90;;;;;;5092035;28;20088;-61
2023/12/25 06:16:12;;;;;;;1.20;0.57;;;11.90;99.90;;;;;;5091991;28;20025;-61
2023/12/25 06:18:38;;;;;;;2.10;1.17;;;11.90;99.90;;;;;;5091827;28;20028;-65
2023/12/25 06:21:03;;;;;;;1.75;0.90;;;12.00;99.90;;;;;;5091764;28;20056;-62
2023/12/25 06:23:29;;;;;;;2.65;0.90;;;12.00;99.90;;;;;;5091703;28;20033;-62
2023/12/25 06:25:55;;;;;;;0.70;0.38;;;12.00;99.90;;;;;;5091673;28;20090;-62
2023/12/25 06:28:20;;;;;;;0.75;0.47;;;12.00;99.90;;;;;;5091793;28;20020;-62
2023/12/25 06:30:46;;;;;;;0.65;0.45;;;12.00;99.90;;;;;;5094621;28;20033;-62
2023/12/25 06:33:11;;;;;;;0.75;0.35;;;12.00;99.90;;;;;;5095608;28;20040;-62
2023/12/25 06:35:37;;;;;;;0.40;0.25;;;12.00;99.90;;;;;;5095474;28;20092;-62
2023/12/25 06:38:03;;;;;;;0.73;0.20;;;12.00;99.90;;;;;;5095497;28;20032;-61
2023/12/25 06:40:28;;;;;;;0.95;0.10;;;11.90;99.90;;;;;;5095396;28;20115;-61
2023/12/25 06:42:54;;;;;;;0.93;0.08;;;11.70;99.90;;;;;;5095319;28;20025;-61
2023/12/25 06:45:20;;;;;;;0.30;0.17;;;11.60;99.90;;;;;;5095395;28;20035;-62
2023/12/25 06:47:46;;;;;;;0.50;0.10;;;11.50;99.90;;;;;;5095286;28;20043;-62
2023/12/25 06:50:12;;;;;;;0.82;0.30;;;11.50;99.90;;;;;;5095209;28;20020;-62
2023/12/25 06:52:40;;;;;;;1.88;0.40;;;11.40;99.90;;;;;;5095115;28;20383;-62
2023/12/25 06:55:06;;;;;;;0.47;0.20;;;11.30;99.90;;;;;;5095082;28;20027;-62
2023/12/25 06:57:32;;;;;;;1.65;0.30;;;11.30;99.90;;;;;;5094876;28;20112;-62
2023/12/25 06:59:57;;;;;;;0.73;0.20;;;11.30;99.90;;;;;;5095028;28;20043;-61
2023/12/25 07:02:23;;;;;;;0.73;0.40;;;11.20;99.90;;;;;;5093791;28;20040;-62
2023/12/25 07:04:49;;;;;;;2.28;0.40;;;11.20;99.90;;;;;;5094932;28;20025;-63
2023/12/25 07:07:14;;;;;;;1.60;0.40;;;11.20;99.90;;;;;;5094871;28;20037;-61
2023/12/25 07:09:43;;;;;;;2.17;0.40;;;11.20;99.90;;;;;;5094789;28;20032;-61
2023/12/25 07:12:09;;;;;;;1.60;0.40;;;11.20;99.90;;;;;;5094980;28;20055;-62
2023/12/25 07:14:35;;;;;;;1.92;0.40;;;11.20;99.90;;;;;;5094849;28;20494;-62
2023/12/25 07:17:02;;;;;;;1.27;0.60;;;11.20;99.90;;;;;;5094747;28;20021;-61
2023/12/25 07:19:27;;;;;;;1.60;0.50;;;11.10;99.90;;;;;;5094693;28;20474;-61
2023/12/25 07:21:53;;;;;;;1.35;0.30;;;11.10;99.90;;;;;;5094447;28;20057;-61
2023/12/25 07:24:19;;;;;;;3.38;0.98;;;11.10;99.90;;;;;;5094538;28;20040;-62
2023/12/25 07:26:44;;;;;;;0.82;0.30;;;11.00;99.90;;;;;;5094588;28;20048;-63
2023/12/25 07:29:10;;;;;;;1.55;0.60;;;11.00;99.90;;;;;;5094492;28;20036;-62
2023/12/25 07:31:36;;;;;;;1.25;0.43;;;11.00;99.90;;;;;;5094304;28;20020;-63
2023/12/25 07:34:01;;;;;;;0.63;0.32;;;11.00;99.90;;;;;;5094508;28;20029;-62
2023/12/25 07:36:27;;;;;;;2.40;0.60;;;11.00;99.90;;;;;;5094356;28;20025;-63
2023/12/25 07:38:53;;;;;;;3.22;0.65;;;10.90;99.90;;;;;;5094350;28;20104;-61
2023/12/25 07:41:21;;;;;;;1.50;0.30;;;10.80;99.90;;;;;;5093763;28;20055;-63
2023/12/25 07:43:47;;;;;;;3.22;0.52;;;10.90;99.90;;;;;;5112348;28;20050;-61
2023/12/25 07:46:12;;;;;;;2.55;0.45;;;10.90;99.90;;;;;;5113193;28;20096;-62
2023/12/25 07:48:38;;;;;;;0.47;0.40;;;10.90;99.90;;;;;;5114140;28;20036;-63
2023/12/25 07:51:04;;;;;;;2.78;0.40;;;10.90;99.90;;;;;;5113888;28;20032;-62
2023/12/25 07:53:30;;;;;;;0.90;0.40;;;10.90;99.90;;;;;;5113363;28;20073;-61
2023/12/25 07:55:55;;;;;;;0.85;0.40;;;10.90;99.90;;;;;;5114349;28;20031;-61
2023/12/25 07:58:21;;;;;;;3.97;0.70;;;10.90;99.90;;;;;;5113804;28;20056;-61
2023/12/25 08:00:48;;;;;;;0.55;0.25;;;10.90;99.90;;;;;;5113971;28;20036;-61
2023/12/25 08:03:13;;;;;;;1.92;0.50;;;10.90;99.90;;;;;;5114118;28;20021;-61
2023/12/25 08:05:39;;;;;;;1.27;0.30;;;11.00;99.90;;;;;;5114151;28;20542;-62
2023/12/25 08:08:07;;;;;;;1.40;0.40;;;11.00;99.90;;;;;;5114040;28;20039;-62
2023/12/25 08:10:34;;;;;;;0.47;0.20;;;11.00;99.90;;;;;;5114013;28;20028;-61
2023/12/25 08:13:02;;;;;;;0.22;0.10;;;11.00;99.90;;;;;;5114019;28;20035;-61
2023/12/25 08:15:28;;;;;;;1.48;0.25;;;11.10;99.90;;;;;;5113976;28;20026;-61
2023/12/25 08:17:54;;;;;;;0.55;0.28;;;11.10;99.90;;;;;;5113899;28;20035;-63
2023/12/25 08:20:19;;;;;;;0.90;0.50;;;11.10;99.90;;;;;;5113794;28;20024;-63
2023/12/25 08:22:45;;;;;;;2.15;0.40;;;11.10;99.90;;;;;;5113734;28;20044;-61
2023/12/25 08:25:11;;;;;;;0.30;0.30;;;11.20;99.90;;;;;;5113691;28;20520;-62
2023/12/25 08:27:36;;;;;;;0.85;0.35;;;11.20;99.90;;;;;;5113609;28;20031;-63
2023/12/25 08:30:03;;;;;;;1.23;0.40;;;11.20;99.90;;;;;;5113602;28;20028;-64
2023/12/25 08:32:29;;;;;;;0.32;0.28;;;11.20;99.90;;;;;;5113493;28;20028;-61
2023/12/25 08:34:55;;;;;;;0.80;0.30;;;11.20;99.90;;;;;;5113480;28;20036;-62
2023/12/25 08:37:21;;;;;;;1.63;0.60;;;11.20;99.90;;;;;;5113473;28;20034;-61
2023/12/25 08:39:47;;;;;;;0.88;0.40;;;11.30;99.90;;;;;;5113601;28;20047;-62
2023/12/25 08:42:12;;;;;;;5.68;0.70;;;11.30;99.90;;;;;;5107716;28;20029;-65
2023/12/25 08:44:38;;;;;;;1.38;0.43;;;11.30;99.90;;;;;;5108690;28;20031;-62
2023/12/25 08:47:04;;;;;;;3.30;0.50;;;11.30;99.90;;;;;;5109100;28;21154;-63
2023/12/25 08:49:30;;;;;;;1.05;0.40;;;11.30;99.90;;;;;;5100224;28;20036;-63
2023/12/25 08:51:56;;;;;;;0.98;0.50;;;11.30;99.90;;;;;;5105325;28;20058;-61
2023/12/25 08:54:21;;;;;;;2.40;0.52;;;11.30;99.90;;;;;;5095934;28;20024;-62
2023/12/25 08:56:47;;;;;;;1.10;0.50;;;11.30;99.90;;;;;;5109413;28;20024;-62
2023/12/25 08:59:13;;;;;;;1.38;0.30;;;11.30;99.90;;;;;;5098980;28;20087;-63
2023/12/25 09:01:39;;;;;;;5.18;0.73;;;11.40;99.90;;;;;;5106572;28;20032;-62
2023/12/25 09:04:06;;;;;;;1.85;0.57;;;11.40;99.90;;;;;;5098785;28;20028;-64
2023/12/25 09:06:32;;;;;;;2.15;0.50;;;11.40;99.90;;;;;;5109125;28;20046;-64
2023/12/25 09:08:58;;;;;;;1.77;0.40;;;11.40;99.90;;;;;;5096952;28;20024;-64
2023/12/25 09:11:23;;;;;;;0.95;0.38;;;11.40;99.90;;;;;;5104553;28;20046;-64
2023/12/25 09:13:49;;;;;;;1.25;0.32;;;11.40;99.90;;;;;;5103965;28;20047;-63
2023/12/25 09:16:15;;;;;;;1.13;0.50;;;11.40;99.90;;;;;;5097367;28;20033;-62
2023/12/25 09:18:40;;;;;;;1.85;0.40;;;11.40;99.90;;;;;;5103428;28;20019;-62
2023/12/25 09:21:06;;;;;;;1.67;0.70;;;11.40;99.90;;;;;;5101819;28;20099;-63
2023/12/25 09:23:31;;;;;;;3.22;0.40;;;11.40;99.90;;;;;;5109181;28;20044;-61
2023/12/25 09:25:57;;;;;;;0.73;0.43;;;11.40;99.90;;;;;;5109847;28;20456;-63
2023/12/25 09:28:23;;;;;;;2.40;0.40;;;11.40;99.90;;;;;;5111173;28;20020;-62
2023/12/25 09:30:48;;;;;;;1.17;0.50;;;11.40;99.90;;;;;;5096506;28;20020;-62
2023/12/25 09:33:14;;;;;;;1.80;0.60;;;11.40;99.90;;;;;;5103441;28;20536;-61
2023/12/25 09:35:40;;;;;;;1.85;0.57;;;11.40;99.90;;;;;;5103620;28;20047;-61
2023/12/25 09:38:06;;;;;;;3.90;0.65;;;11.50;99.90;;;;;;5109285;28;20035;-62
2023/12/25 09:40:32;;;;;;;1.75;0.47;;;11.40;99.90;;;;;;5095587;28;20078;-62
2023/12/25 09:43:01;;;;;;;0.47;0.38;;;11.40;99.90;;;;;;5106653;28;20021;-62
2023/12/25 09:45:33;;;;;;;1.15;0.25;;;11.40;99.90;;;;;;5101828;28;20050;-62
2023/12/25 09:47:59;;;;;;;4.30;0.40;;;11.40;99.90;;;;;;5098081;28;20074;-61
2023/12/25 09:50:26;;;;;;;1.75;0.60;;;11.40;99.90;;;;;;5109865;28;20028;-63
2023/12/25 09:52:52;;;;;;;0.15;0.13;;;11.40;99.90;;;;;;5107513;28;20471;-61
2023/12/25 09:55:18;;;;;;;1.63;0.25;;;11.40;99.90;;;;;;5100464;28;20046;-62
2023/12/25 09:57:45;;;;;;;2.08;0.30;;;11.40;99.90;;;;;;5099891;28;20025;-62
2023/12/25 10:00:11;;;;;;;1.27;0.30;;;11.40;99.90;;;;;;5107615;28;20035;-64
2023/12/25 10:02:44;;;;;;;2.92;0.65;;;11.40;99.90;;;;;;5095099;28;20028;-60
2023/12/25 10:05:10;;;;;;;0.73;0.30;;;11.40;99.90;;;;;;5109743;28;20040;-62
2023/12/25 10:07:36;;;;;;;1.05;0.40;;;11.40;99.90;;;;;;5105289;28;20012;-63
2023/12/25 10:10:02;;;;;;;2.72;0.50;;;11.40;99.90;;;;;;5105889;28;20032;-63
2023/12/25 10:12:28;;;;;;;0.43;0.20;;;11.50;99.90;;;;;;5112049;28;20032;-61
2023/12/25 10:14:54;;;;;;;1.75;0.45;;;11.50;99.90;;;;;;5115121;28;20028;-61
2023/12/25 10:17:19;;;;;;;3.78;0.55;;;11.50;99.90;;;;;;5107228;28;20028;-61
2023/12/25 10:19:55;;;;;;;1.40;0.40;;;11.50;99.90;;;;;;5107920;28;20091;-62
2023/12/25 10:22:33;;;;;;;1.48;0.30;;;11.50;99.90;;;;;;5098878;28;20028;-62
2023/12/25 10:25:10;;;;;;;2.30;0.40;;;11.50;99.90;;;;;;5110180;28;20019;-62
2023/12/25 10:27:40;;;;;;;1.65;0.40;;;11.50;99.90;;;;;;5106400;28;20028;-62
2023/12/25 10:30:17;;;;;;;0.88;0.50;;;11.50;99.90;;;;;;5100544;28;20104;-61
2023/12/25 10:32:42;;;;;;;1.67;0.50;;;11.50;99.90;;;;;;5095314;28;20065;-62
2023/12/25 10:35:18;;;;;;;1.35;0.50;;;11.50;99.90;;;;;;5098139;28;20033;-61
2023/12/25 10:37:45;;;;;;;1.63;0.63;;;11.50;99.90;;;;;;5106272;28;20046;-63
2023/12/25 10:40:27;;;;;;;0.88;0.40;;;11.40;99.90;;;;;;5106147;28;20020;-63
2023/12/25 10:42:55;;;;;;;1.42;0.40;;;11.40;99.90;;;;;;5101888;28;20024;-62
2023/12/25 10:45:25;;;;;;;1.30;0.40;;;11.40;99.90;;;;;;5115557;28;20020;-61
2023/12/25 10:47:55;;;;;;;3.28;1.13;;;11.40;99.90;;;;;;5102356;28;20020;-62
2023/12/25 10:50:26;;;;;;;1.35;0.47;;;11.40;99.90;;;;;;5111767;28;20024;-63
2023/12/25 10:52:53;;;;;;;2.65;0.60;;;11.40;99.90;;;;;;5099880;28;20043;-61
2023/12/25 10:55:36;;;;;;;0.80;0.38;;;11.40;99.90;;;;;;5105678;28;20020;-61
2023/12/25 10:58:03;;;;;;;1.35;0.40;;;11.40;99.90;;;;;;5094780;28;20038;-63
2023/12/25 11:00:30;;;;;;;0.85;0.52;;;11.30;99.90;;;;;;5111410;28;20024;-62
2023/12/25 11:03:00;;;;;;;1.67;0.47;;;11.30;99.90;;;;;;5094731;28;20024;-62
2023/12/25 11:05:27;;;;;;;0.88;0.30;;;11.30;99.90;;;;;;5104548;28;20042;-62
2023/12/25 11:07:53;;;;;;;4.00;0.70;;;11.30;99.90;;;;;;5101743;28;20025;-61
2023/12/25 11:10:18;;;;;;;4.20;0.80;;;11.30;99.90;;;;;;5108218;28;20050;-61
2023/12/25 11:12:45;;;;;;;4.22;0.80;;;11.30;99.90;;;;;;5105431;28;20417;-63
2023/12/25 11:15:14;;;;;;;1.98;0.40;;;11.30;99.90;;;;;;5103622;28;20463;-63
2023/12/25 11:17:40;;;;;;;1.17;0.70;;;11.30;99.90;;;;;;5111108;28;20035;-62
2023/12/25 11:20:10;;;;;;;2.10;0.70;;;11.30;99.90;;;;;;5114973;28;20024;-62
2023/12/25 11:22:36;;;;;;;1.80;0.63;;;11.30;99.90;;;;;;5113836;28;20051;-62
2023/12/25 11:25:03;;;;;;;0.82;0.50;;;11.30;99.90;;;;;;5114839;28;20050;-62
2023/12/25 11:27:32;;;;;;;1.40;0.55;;;11.20;99.90;;;;;;5114862;28;20032;-62
2023/12/25 11:30:02;;;;;;;2.75;0.55;;;11.30;99.90;;;;;;5114790;28;20053;-62
2023/12/25 11:32:30;;;;;;;0.50;0.30;;;11.30;99.90;;;;;;5114612;28;20016;-62
2023/12/25 11:34:56;;;;;;;4.15;0.70;;;11.20;99.90;;;;;;5114755;28;20032;-62
2023/12/25 11:37:25;;;;;;;1.98;0.82;;;11.20;99.90;;;;;;5113643;28;20023;-61
2023/12/25 11:40:06;;;;;;;3.60;0.88;;;11.20;99.90;;;;;;5114735;28;20028;-62
2023/12/25 11:42:36;;;;;;;0.38;0.38;;;11.20;99.90;;;;;;5114520;28;20036;-61
2023/12/25 11:45:06;;;;;;;3.28;0.73;;;11.10;99.90;;;;;;5114568;28;20021;-61
2023/12/25 11:47:50;;;;;;;1.92;0.63;;;11.10;99.90;;;;;;5114511;28;20035;-61
2023/12/25 11:50:15;;;;;;;1.65;0.60;;;11.10;99.90;;;;;;5108351;28;20024;-61
2023/12/25 11:52:47;;;;;;;1.00;0.50;;;11.10;99.90;;;;;;5103715;28;20028;-61
2023/12/25 11:55:19;;;;;;;0.63;0.30;;;11.10;99.90;;;;;;5101991;28;20020;-61
2023/12/25 11:57:46;;;;;;;1.65;0.50;;;11.10;99.90;;;;;;5093769;28;20059;-63
2023/12/25 12:00:16;;;;;;;1.95;0.50;;;11.10;99.90;;;;;;5093705;28;20039;-64
2023/12/25 12:02:43;;;;;;;0.60;0.40;;;11.10;99.90;;;;;;5093825;28;20028;-61
2023/12/25 12:05:09;;;;;;;2.42;0.47;;;11.20;99.90;;;;;;5093784;28;20039;-62
2023/12/25 12:07:34;;;;;;;3.30;0.80;;;11.20;99.90;;;;;;5093642;28;20025;-62
2023/12/25 12:10:00;;;;;;;2.15;0.75;;;11.20;99.90;;;;;;5093772;28;20032;-62
2023/12/25 12:12:27;;;;;;;2.28;0.50;;;11.20;99.90;;;;;;5093814;28;20036;-63
2023/12/25 12:14:53;;;;;;;0.73;0.35;;;11.20;99.90;;;;;;5093673;28;20136;-61
2023/12/25 12:17:19;;;;;;;1.15;0.40;;;11.20;99.90;;;;;;5093593;28;20028;-61
2023/12/25 12:19:45;;;;;;;0.52;0.40;;;11.20;99.90;;;;;;5112611;28;20085;-61
2023/12/25 12:22:10;;;;;;;3.03;0.40;;;11.20;99.90;;;;;;5108511;28;20032;-63
2023/12/25 12:24:36;;;;;;;1.98;0.30;;;11.20;99.90;;;;;;5102327;28;20009;-63
2023/12/25 12:27:04;;;;;;;2.97;0.40;;;11.20;99.90;;;;;;5102725;28;20474;-62
2023/12/25 12:29:30;;;;;;;1.85;0.45;;;11.30;99.90;;;;;;5105177;28;20065;-62
2023/12/25 12:31:55;;;;;;;2.17;0.70;;;11.30;99.90;;;;;;5104690;28;20058;-62
2023/12/25 12:34:22;;;;;;;1.88;0.40;;;11.20;99.90;;;;;;5103834;28;20028;-62
2023/12/25 12:37:03;;;;;;;2.78;0.68;;;11.20;99.90;;;;;;5102473;28;20020;-63
2023/12/25 12:39:29;;;;;;;1.40;0.40;;;11.30;99.90;;;;;;5102718;28;20043;-62
2023/12/25 12:41:56;;;;;;;1.88;0.68;;;11.30;99.90;;;;;;5102020;28;20066;-63
2023/12/25 12:44:25;;;;;;;1.90;1.00;;;11.30;99.90;;;;;;5103569;28;20020;-62